sensor_id;sensor_type;location;lat;lon;timestamp;P1;durP1;ratioP1;P2;durP2;ratioP2
61572;SDS011;47465;43.094;12.434;2022-10-16T00:02:01;24.42;;;11.23;;
61572;SDS011;47465;43.094;12.434;2022-10-16T00:04:27;25.67;;;11.52;;
61572;SDS011;47465;43.094;12.434;2022-10-16T00:06:52;22.92;;;11.57;;
61572;SDS011;47465;43.094;12.434;2022-10-16T00:09:18;24.20;;;12.85;;
61572;SDS011;47465;43.094;12.434;2022-10-16T00:11:44;25.85;;;11.75;;
61572;SDS011;47465;43.094;12.434;2022-10-16T00:14:11;20.52;;;11.32;;
61572;SDS011;47465;43.094;12.434;2022-10-16T00:16:39;25.33;;;11.57;;
61572;SDS011;47465;43.094;12.434;2022-10-16T00:19:06;20.98;;;11.23;;
61572;SDS011;47465;43.094;12.434;2022-10-16T00:21:32;23.23;;;11.25;;
61572;SDS011;47465;43.094;12.434;2022-10-16T00:23:58;23.73;;;11.55;;
61572;SDS011;47465;43.094;12.434;2022-10-16T00:26:26;20.50;;;10.80;;
61572;SDS011;47465;43.094;12.434;2022-10-16T00:28:53;26.17;;;11.48;;
61572;SDS011;47465;43.094;12.434;2022-10-16T00:31:20;22.08;;;11.82;;
61572;SDS011;47465;43.094;12.434;2022-10-16T00:33:49;22.05;;;11.63;;
61572;SDS011;47465;43.094;12.434;2022-10-16T00:36:17;30.27;;;14.02;;
61572;SDS011;47465;43.094;12.434;2022-10-16T00:38:43;26.92;;;13.00;;
61572;SDS011;47465;43.094;12.434;2022-10-16T00:41:11;25.13;;;12.90;;
61572;SDS011;47465;43.094;12.434;2022-10-16T00:43:40;29.63;;;13.70;;
61572;SDS011;47465;43.094;12.434;2022-10-16T00:46:11;25.17;;;13.43;;
61572;SDS011;47465;43.094;12.434;2022-10-16T00:48:40;26.23;;;13.60;;
61572;SDS011;47465;43.094;12.434;2022-10-16T00:51:12;28.50;;;12.88;;
61572;SDS011;47465;43.094;12.434;2022-10-16T00:53:37;28.42;;;13.02;;
61572;SDS011;47465;43.094;12.434;2022-10-16T00:56:03;28.17;;;13.30;;
61572;SDS011;47465;43.094;12.434;2022-10-16T00:58:29;27.75;;;12.75;;
61572;SDS011;47465;43.094;12.434;2022-10-16T01:00:55;27.40;;;12.93;;
61572;SDS011;47465;43.094;12.434;2022-10-16T01:03:22;22.65;;;12.13;;
61572;SDS011;47465;43.094;12.434;2022-10-16T01:05:51;23.77;;;12.30;;
61572;SDS011;47465;43.094;12.434;2022-10-16T01:08:27;27.67;;;12.43;;
61572;SDS011;47465;43.094;12.434;2022-10-16T01:10:59;28.63;;;12.77;;
61572;SDS011;47465;43.094;12.434;2022-10-16T01:13:33;24.02;;;12.07;;
61572;SDS011;47465;43.094;12.434;2022-10-16T01:16:04;27.80;;;12.45;;
61572;SDS011;47465;43.094;12.434;2022-10-16T01:18:36;29.58;;;12.07;;
61572;SDS011;47465;43.094;12.434;2022-10-16T01:21:09;26.00;;;13.35;;
61572;SDS011;47465;43.094;12.434;2022-10-16T01:23:41;29.25;;;12.18;;
61572;SDS011;47465;43.094;12.434;2022-10-16T01:26:16;27.00;;;12.18;;
61572;SDS011;47465;43.094;12.434;2022-10-16T01:28:59;25.05;;;12.40;;
61572;SDS011;47465;43.094;12.434;2022-10-16T01:31:29;27.15;;;12.20;;
61572;SDS011;47465;43.094;12.434;2022-10-16T01:36:26;24.17;;;12.52;;
61572;SDS011;47465;43.094;12.434;2022-10-16T01:38:59;27.40;;;12.93;;
61572;SDS011;47465;43.094;12.434;2022-10-16T01:41:27;27.17;;;12.82;;
61572;SDS011;47465;43.094;12.434;2022-10-16T01:44:01;27.17;;;12.60;;
61572;SDS011;47465;43.094;12.434;2022-10-16T01:46:30;30.55;;;12.88;;
61572;SDS011;47465;43.094;12.434;2022-10-16T01:48:57;28.00;;;12.57;;
61572;SDS011;47465;43.094;12.434;2022-10-16T01:51:24;26.23;;;12.70;;
61572;SDS011;47465;43.094;12.434;2022-10-16T01:53:52;28.23;;;12.48;;
61572;SDS011;47465;43.094;12.434;2022-10-16T01:56:20;28.40;;;12.98;;
61572;SDS011;47465;43.094;12.434;2022-10-16T02:01:20;25.38;;;11.90;;
61572;SDS011;47465;43.094;12.434;2022-10-16T02:03:48;25.95;;;12.60;;
61572;SDS011;47465;43.094;12.434;2022-10-16T02:06:18;25.55;;;13.20;;
61572;SDS011;47465;43.094;12.434;2022-10-16T02:08:43;25.23;;;12.82;;
61572;SDS011;47465;43.094;12.434;2022-10-16T02:11:09;30.45;;;14.85;;
61572;SDS011;47465;43.094;12.434;2022-10-16T02:13:37;29.20;;;13.63;;
61572;SDS011;47465;43.094;12.434;2022-10-16T02:16:08;28.25;;;13.23;;
61572;SDS011;47465;43.094;12.434;2022-10-16T02:18:36;32.23;;;13.27;;
61572;SDS011;47465;43.094;12.434;2022-10-16T02:21:04;29.13;;;13.32;;
61572;SDS011;47465;43.094;12.434;2022-10-16T02:23:40;30.15;;;13.75;;
61572;SDS011;47465;43.094;12.434;2022-10-16T02:26:13;29.52;;;12.98;;
61572;SDS011;47465;43.094;12.434;2022-10-16T02:28:46;25.50;;;12.85;;
61572;SDS011;47465;43.094;12.434;2022-10-16T02:31:18;24.42;;;12.52;;
61572;SDS011;47465;43.094;12.434;2022-10-16T02:33:51;24.42;;;11.55;;
61572;SDS011;47465;43.094;12.434;2022-10-16T02:36:18;27.65;;;12.43;;
61572;SDS011;47465;43.094;12.434;2022-10-16T02:38:44;27.83;;;12.85;;
61572;SDS011;47465;43.094;12.434;2022-10-16T02:41:11;25.52;;;12.90;;
61572;SDS011;47465;43.094;12.434;2022-10-16T02:43:36;26.35;;;12.20;;
61572;SDS011;47465;43.094;12.434;2022-10-16T02:46:02;31.58;;;13.85;;
61572;SDS011;47465;43.094;12.434;2022-10-16T02:48:28;27.60;;;13.13;;
61572;SDS011;47465;43.094;12.434;2022-10-16T02:50:55;32.08;;;13.13;;
61572;SDS011;47465;43.094;12.434;2022-10-16T02:53:22;27.35;;;13.77;;
61572;SDS011;47465;43.094;12.434;2022-10-16T02:55:47;26.38;;;12.20;;
61572;SDS011;47465;43.094;12.434;2022-10-16T02:58:13;28.10;;;11.93;;
61572;SDS011;47465;43.094;12.434;2022-10-16T03:00:39;27.70;;;13.93;;
61572;SDS011;47465;43.094;12.434;2022-10-16T03:03:05;27.40;;;12.30;;
61572;SDS011;47465;43.094;12.434;2022-10-16T03:05:30;29.80;;;13.68;;
61572;SDS011;47465;43.094;12.434;2022-10-16T03:08:00;27.70;;;12.77;;
61572;SDS011;47465;43.094;12.434;2022-10-16T03:10:26;29.40;;;13.43;;
61572;SDS011;47465;43.094;12.434;2022-10-16T03:12:52;33.47;;;13.40;;
61572;SDS011;47465;43.094;12.434;2022-10-16T03:15:17;26.58;;;12.82;;
61572;SDS011;47465;43.094;12.434;2022-10-16T03:17:43;27.00;;;12.65;;
61572;SDS011;47465;43.094;12.434;2022-10-16T03:20:09;27.98;;;12.63;;
61572;SDS011;47465;43.094;12.434;2022-10-16T03:22:36;24.65;;;13.18;;
61572;SDS011;47465;43.094;12.434;2022-10-16T03:25:04;36.72;;;13.05;;
61572;SDS011;47465;43.094;12.434;2022-10-16T03:27:30;24.65;;;12.95;;
61572;SDS011;47465;43.094;12.434;2022-10-16T03:29:56;27.40;;;12.88;;
61572;SDS011;47465;43.094;12.434;2022-10-16T03:32:22;30.23;;;13.13;;
61572;SDS011;47465;43.094;12.434;2022-10-16T03:34:50;29.45;;;12.52;;
61572;SDS011;47465;43.094;12.434;2022-10-16T03:37:15;27.38;;;12.63;;
61572;SDS011;47465;43.094;12.434;2022-10-16T03:39:41;25.65;;;12.40;;
61572;SDS011;47465;43.094;12.434;2022-10-16T03:42:08;28.42;;;12.50;;
61572;SDS011;47465;43.094;12.434;2022-10-16T03:44:34;27.88;;;12.25;;
61572;SDS011;47465;43.094;12.434;2022-10-16T03:47:00;27.17;;;12.85;;
61572;SDS011;47465;43.094;12.434;2022-10-16T03:49:25;23.90;;;13.18;;
61572;SDS011;47465;43.094;12.434;2022-10-16T03:51:51;30.73;;;13.13;;
61572;SDS011;47465;43.094;12.434;2022-10-16T03:54:17;25.48;;;12.90;;
61572;SDS011;47465;43.094;12.434;2022-10-16T03:56:43;27.50;;;13.85;;
61572;SDS011;47465;43.094;12.434;2022-10-16T03:59:10;31.85;;;13.93;;
61572;SDS011;47465;43.094;12.434;2022-10-16T04:01:35;29.20;;;13.48;;
61572;SDS011;47465;43.094;12.434;2022-10-16T04:04:01;27.27;;;12.77;;
61572;SDS011;47465;43.094;12.434;2022-10-16T04:06:27;28.48;;;13.25;;
61572;SDS011;47465;43.094;12.434;2022-10-16T04:08:53;28.30;;;13.30;;
61572;SDS011;47465;43.094;12.434;2022-10-16T04:11:18;34.13;;;14.23;;
61572;SDS011;47465;43.094;12.434;2022-10-16T04:13:44;25.05;;;12.60;;
61572;SDS011;47465;43.094;12.434;2022-10-16T04:16:11;31.00;;;13.65;;
61572;SDS011;47465;43.094;12.434;2022-10-16T04:18:37;30.63;;;14.20;;
61572;SDS011;47465;43.094;12.434;2022-10-16T04:21:03;25.33;;;12.90;;
61572;SDS011;47465;43.094;12.434;2022-10-16T04:23:29;29.40;;;13.90;;
61572;SDS011;47465;43.094;12.434;2022-10-16T04:25:55;26.35;;;13.00;;
61572;SDS011;47465;43.094;12.434;2022-10-16T04:28:21;27.27;;;13.13;;
61572;SDS011;47465;43.094;12.434;2022-10-16T04:30:46;33.67;;;13.30;;
61572;SDS011;47465;43.094;12.434;2022-10-16T04:33:13;31.13;;;13.85;;
61572;SDS011;47465;43.094;12.434;2022-10-16T04:35:39;33.75;;;14.10;;
61572;SDS011;47465;43.094;12.434;2022-10-16T04:38:05;29.73;;;13.85;;
61572;SDS011;47465;43.094;12.434;2022-10-16T04:40:30;27.48;;;12.63;;
61572;SDS011;47465;43.094;12.434;2022-10-16T04:42:58;30.48;;;13.90;;
61572;SDS011;47465;43.094;12.434;2022-10-16T04:45:23;27.30;;;12.27;;
61572;SDS011;47465;43.094;12.434;2022-10-16T04:47:49;28.70;;;13.52;;
61572;SDS011;47465;43.094;12.434;2022-10-16T04:50:17;31.38;;;14.23;;
61572;SDS011;47465;43.094;12.434;2022-10-16T04:52:42;31.92;;;13.82;;
61572;SDS011;47465;43.094;12.434;2022-10-16T04:55:08;33.85;;;14.23;;
61572;SDS011;47465;43.094;12.434;2022-10-16T04:57:34;28.05;;;12.85;;
61572;SDS011;47465;43.094;12.434;2022-10-16T05:00:00;26.35;;;13.63;;
61572;SDS011;47465;43.094;12.434;2022-10-16T05:02:26;28.40;;;13.15;;
61572;SDS011;47465;43.094;12.434;2022-10-16T05:04:52;29.92;;;12.73;;
61572;SDS011;47465;43.094;12.434;2022-10-16T05:07:19;27.02;;;12.82;;
61572;SDS011;47465;43.094;12.434;2022-10-16T05:09:47;25.05;;;12.35;;
61572;SDS011;47465;43.094;12.434;2022-10-16T05:12:13;27.02;;;13.88;;
61572;SDS011;47465;43.094;12.434;2022-10-16T05:14:39;28.58;;;12.93;;
61572;SDS011;47465;43.094;12.434;2022-10-16T05:17:05;30.27;;;13.27;;
61572;SDS011;47465;43.094;12.434;2022-10-16T05:19:31;24.67;;;11.85;;
61572;SDS011;47465;43.094;12.434;2022-10-16T05:21:57;25.85;;;12.60;;
61572;SDS011;47465;43.094;12.434;2022-10-16T05:24:24;24.83;;;12.70;;
61572;SDS011;47465;43.094;12.434;2022-10-16T05:26:51;28.73;;;13.65;;
61572;SDS011;47465;43.094;12.434;2022-10-16T05:29:17;29.70;;;12.52;;
61572;SDS011;47465;43.094;12.434;2022-10-16T05:31:42;29.70;;;13.27;;
61572;SDS011;47465;43.094;12.434;2022-10-16T05:34:08;27.90;;;12.23;;
61572;SDS011;47465;43.094;12.434;2022-10-16T05:36:34;30.45;;;13.43;;
61572;SDS011;47465;43.094;12.434;2022-10-16T05:39:00;28.25;;;12.35;;
61572;SDS011;47465;43.094;12.434;2022-10-16T05:41:27;28.58;;;12.93;;
61572;SDS011;47465;43.094;12.434;2022-10-16T05:43:53;31.98;;;12.70;;
61572;SDS011;47465;43.094;12.434;2022-10-16T05:46:19;30.60;;;13.48;;
61572;SDS011;47465;43.094;12.434;2022-10-16T05:48:44;26.88;;;12.85;;
61572;SDS011;47465;43.094;12.434;2022-10-16T05:51:11;28.83;;;13.73;;
61572;SDS011;47465;43.094;12.434;2022-10-16T05:53:39;31.83;;;14.25;;
61572;SDS011;47465;43.094;12.434;2022-10-16T05:56:06;31.33;;;13.25;;
61572;SDS011;47465;43.094;12.434;2022-10-16T05:58:35;28.52;;;13.85;;
61572;SDS011;47465;43.094;12.434;2022-10-16T06:01:03;31.05;;;13.18;;
61572;SDS011;47465;43.094;12.434;2022-10-16T06:03:29;27.98;;;13.32;;
61572;SDS011;47465;43.094;12.434;2022-10-16T06:05:55;27.83;;;13.07;;
61572;SDS011;47465;43.094;12.434;2022-10-16T06:08:21;29.58;;;13.77;;
61572;SDS011;47465;43.094;12.434;2022-10-16T06:10:48;26.60;;;13.05;;
61572;SDS011;47465;43.094;12.434;2022-10-16T06:13:14;27.73;;;13.27;;
61572;SDS011;47465;43.094;12.434;2022-10-16T06:15:42;26.83;;;13.10;;
61572;SDS011;47465;43.094;12.434;2022-10-16T06:18:08;27.25;;;13.68;;
61572;SDS011;47465;43.094;12.434;2022-10-16T06:20:34;26.88;;;13.23;;
61572;SDS011;47465;43.094;12.434;2022-10-16T06:22:59;28.15;;;13.77;;
61572;SDS011;47465;43.094;12.434;2022-10-16T06:25:25;33.95;;;13.82;;
61572;SDS011;47465;43.094;12.434;2022-10-16T06:27:51;26.33;;;12.98;;
61572;SDS011;47465;43.094;12.434;2022-10-16T06:30:17;29.50;;;14.07;;
61572;SDS011;47465;43.094;12.434;2022-10-16T06:32:44;29.20;;;14.02;;
61572;SDS011;47465;43.094;12.434;2022-10-16T06:35:10;32.28;;;14.65;;
61572;SDS011;47465;43.094;12.434;2022-10-16T06:37:35;33.90;;;16.70;;
61572;SDS011;47465;43.094;12.434;2022-10-16T06:40:01;34.17;;;17.27;;
61572;SDS011;47465;43.094;12.434;2022-10-16T06:42:29;32.90;;;15.85;;
61572;SDS011;47465;43.094;12.434;2022-10-16T06:44:55;31.55;;;15.50;;
61572;SDS011;47465;43.094;12.434;2022-10-16T06:47:21;36.65;;;16.05;;
61572;SDS011;47465;43.094;12.434;2022-10-16T06:49:48;34.92;;;15.77;;
61572;SDS011;47465;43.094;12.434;2022-10-16T06:52:14;31.70;;;15.35;;
61572;SDS011;47465;43.094;12.434;2022-10-16T06:54:39;31.13;;;14.02;;
61572;SDS011;47465;43.094;12.434;2022-10-16T06:57:05;29.55;;;14.80;;
61572;SDS011;47465;43.094;12.434;2022-10-16T06:59:31;30.88;;;14.93;;
61572;SDS011;47465;43.094;12.434;2022-10-16T07:01:56;31.35;;;14.23;;
61572;SDS011;47465;43.094;12.434;2022-10-16T07:04:22;37.63;;;16.58;;
61572;SDS011;47465;43.094;12.434;2022-10-16T07:06:49;29.83;;;15.68;;
61572;SDS011;47465;43.094;12.434;2022-10-16T07:09:16;31.30;;;15.68;;
61572;SDS011;47465;43.094;12.434;2022-10-16T07:11:42;28.88;;;13.98;;
61572;SDS011;47465;43.094;12.434;2022-10-16T07:14:12;25.40;;;14.10;;
61572;SDS011;47465;43.094;12.434;2022-10-16T07:16:41;28.15;;;15.77;;
61572;SDS011;47465;43.094;12.434;2022-10-16T07:19:07;23.33;;;13.80;;
61572;SDS011;47465;43.094;12.434;2022-10-16T07:21:33;28.02;;;14.18;;
61572;SDS011;47465;43.094;12.434;2022-10-16T07:24:03;28.52;;;13.93;;
61572;SDS011;47465;43.094;12.434;2022-10-16T07:26:30;25.58;;;13.02;;
61572;SDS011;47465;43.094;12.434;2022-10-16T07:28:57;27.95;;;12.75;;
61572;SDS011;47465;43.094;12.434;2022-10-16T07:31:23;25.85;;;12.60;;
61572;SDS011;47465;43.094;12.434;2022-10-16T07:33:50;28.13;;;13.73;;
61572;SDS011;47465;43.094;12.434;2022-10-16T07:36:17;24.15;;;12.88;;
61572;SDS011;47465;43.094;12.434;2022-10-16T07:38:43;26.23;;;13.73;;
61572;SDS011;47465;43.094;12.434;2022-10-16T07:41:12;27.60;;;13.35;;
61572;SDS011;47465;43.094;12.434;2022-10-16T07:46:04;22.63;;;12.23;;
61572;SDS011;47465;43.094;12.434;2022-10-16T07:48:31;23.58;;;12.85;;
61572;SDS011;47465;43.094;12.434;2022-10-16T07:50:58;26.63;;;12.60;;
61572;SDS011;47465;43.094;12.434;2022-10-16T07:53:25;27.25;;;12.50;;
61572;SDS011;47465;43.094;12.434;2022-10-16T07:55:50;21.63;;;12.30;;
61572;SDS011;47465;43.094;12.434;2022-10-16T07:58:17;26.33;;;11.75;;
61572;SDS011;47465;43.094;12.434;2022-10-16T08:00:43;23.98;;;12.05;;
61572;SDS011;47465;43.094;12.434;2022-10-16T08:03:09;21.13;;;11.68;;
61572;SDS011;47465;43.094;12.434;2022-10-16T08:05:35;22.20;;;11.98;;
61572;SDS011;47465;43.094;12.434;2022-10-16T08:08:01;20.98;;;11.80;;
61572;SDS011;47465;43.094;12.434;2022-10-16T08:10:27;20.40;;;12.48;;
61572;SDS011;47465;43.094;12.434;2022-10-16T08:12:54;19.77;;;12.00;;
61572;SDS011;47465;43.094;12.434;2022-10-16T08:15:22;18.60;;;11.25;;
61572;SDS011;47465;43.094;12.434;2022-10-16T08:17:54;23.10;;;12.10;;
61572;SDS011;47465;43.094;12.434;2022-10-16T08:20:21;21.38;;;11.60;;
61572;SDS011;47465;43.094;12.434;2022-10-16T08:22:47;20.13;;;10.98;;
61572;SDS011;47465;43.094;12.434;2022-10-16T08:25:12;25.67;;;11.35;;
61572;SDS011;47465;43.094;12.434;2022-10-16T08:27:38;21.33;;;11.40;;
61572;SDS011;47465;43.094;12.434;2022-10-16T08:30:04;26.65;;;12.25;;
61572;SDS011;47465;43.094;12.434;2022-10-16T08:32:32;19.10;;;11.40;;
61572;SDS011;47465;43.094;12.434;2022-10-16T08:34:58;21.23;;;11.43;;
61572;SDS011;47465;43.094;12.434;2022-10-16T08:37:24;23.65;;;12.73;;
61572;SDS011;47465;43.094;12.434;2022-10-16T08:39:50;21.73;;;11.65;;
61572;SDS011;47465;43.094;12.434;2022-10-16T08:42:21;20.42;;;11.23;;
61572;SDS011;47465;43.094;12.434;2022-10-16T08:48:00;20.10;;;11.60;;
61572;SDS011;47465;43.094;12.434;2022-10-16T08:50:40;24.83;;;11.10;;
61572;SDS011;47465;43.094;12.434;2022-10-16T08:53:13;20.88;;;10.65;;
61572;SDS011;47465;43.094;12.434;2022-10-16T08:55:43;18.80;;;10.57;;
61572;SDS011;47465;43.094;12.434;2022-10-16T08:58:13;19.60;;;10.57;;
61572;SDS011;47465;43.094;12.434;2022-10-16T09:00:40;25.27;;;12.35;;
61572;SDS011;47465;43.094;12.434;2022-10-16T09:03:13;21.92;;;11.43;;
61572;SDS011;47465;43.094;12.434;2022-10-16T09:08:24;20.33;;;11.95;;
61572;SDS011;47465;43.094;12.434;2022-10-16T09:10:56;20.38;;;11.60;;
61572;SDS011;47465;43.094;12.434;2022-10-16T09:13:27;24.38;;;12.38;;
61572;SDS011;47465;43.094;12.434;2022-10-16T09:15:59;22.50;;;11.88;;
61572;SDS011;47465;43.094;12.434;2022-10-16T09:18:40;20.60;;;11.73;;
61572;SDS011;47465;43.094;12.434;2022-10-16T09:21:18;22.70;;;12.65;;
61572;SDS011;47465;43.094;12.434;2022-10-16T09:23:47;21.52;;;11.38;;
61572;SDS011;47465;43.094;12.434;2022-10-16T09:26:14;17.52;;;11.63;;
61572;SDS011;47465;43.094;12.434;2022-10-16T09:28:43;21.10;;;11.83;;
61572;SDS011;47465;43.094;12.434;2022-10-16T09:31:51;22.48;;;13.00;;
61572;SDS011;47465;43.094;12.434;2022-10-16T09:34:23;23.58;;;12.05;;
61572;SDS011;47465;43.094;12.434;2022-10-16T09:36:55;22.65;;;12.40;;
61572;SDS011;47465;43.094;12.434;2022-10-16T09:39:23;24.13;;;12.45;;
61572;SDS011;47465;43.094;12.434;2022-10-16T09:41:51;23.70;;;12.05;;
61572;SDS011;47465;43.094;12.434;2022-10-16T09:44:18;26.25;;;13.25;;
61572;SDS011;47465;43.094;12.434;2022-10-16T09:46:47;21.60;;;12.60;;
61572;SDS011;47465;43.094;12.434;2022-10-16T09:49:19;28.85;;;13.48;;
61572;SDS011;47465;43.094;12.434;2022-10-16T09:51:48;21.98;;;12.43;;
61572;SDS011;47465;43.094;12.434;2022-10-16T09:54:16;20.95;;;12.23;;
61572;SDS011;47465;43.094;12.434;2022-10-16T09:56:43;22.55;;;11.77;;
61572;SDS011;47465;43.094;12.434;2022-10-16T09:59:11;22.30;;;12.00;;
61572;SDS011;47465;43.094;12.434;2022-10-16T10:01:39;21.17;;;11.90;;
61572;SDS011;47465;43.094;12.434;2022-10-16T10:04:07;22.90;;;11.47;;
61572;SDS011;47465;43.094;12.434;2022-10-16T10:06:36;27.50;;;13.80;;
61572;SDS011;47465;43.094;12.434;2022-10-16T10:09:06;21.63;;;12.15;;
61572;SDS011;47465;43.094;12.434;2022-10-16T10:11:43;24.80;;;12.15;;
61572;SDS011;47465;43.094;12.434;2022-10-16T10:14:17;22.23;;;12.15;;
61572;SDS011;47465;43.094;12.434;2022-10-16T10:16:45;23.75;;;13.13;;
61572;SDS011;47465;43.094;12.434;2022-10-16T10:19:13;26.92;;;13.68;;
61572;SDS011;47465;43.094;12.434;2022-10-16T10:21:42;26.95;;;13.32;;
61572;SDS011;47465;43.094;12.434;2022-10-16T10:24:10;30.92;;;13.68;;
61572;SDS011;47465;43.094;12.434;2022-10-16T10:26:37;23.80;;;12.88;;
61572;SDS011;47465;43.094;12.434;2022-10-16T10:29:04;25.05;;;12.80;;
61572;SDS011;47465;43.094;12.434;2022-10-16T10:31:41;21.98;;;12.05;;
61572;SDS011;47465;43.094;12.434;2022-10-16T10:34:16;24.45;;;13.13;;
61572;SDS011;47465;43.094;12.434;2022-10-16T10:36:54;24.75;;;12.77;;
61572;SDS011;47465;43.094;12.434;2022-10-16T10:39:27;23.92;;;13.55;;
61572;SDS011;47465;43.094;12.434;2022-10-16T10:42:08;31.42;;;16.73;;
61572;SDS011;47465;43.094;12.434;2022-10-16T10:45:01;25.02;;;13.35;;
61572;SDS011;47465;43.094;12.434;2022-10-16T10:47:52;23.50;;;12.43;;
61572;SDS011;47465;43.094;12.434;2022-10-16T10:50:26;21.55;;;12.13;;
61572;SDS011;47465;43.094;12.434;2022-10-16T10:53:02;26.00;;;13.63;;
61572;SDS011;47465;43.094;12.434;2022-10-16T10:55:40;30.42;;;14.05;;
61572;SDS011;47465;43.094;12.434;2022-10-16T10:58:18;23.05;;;12.82;;
61572;SDS011;47465;43.094;12.434;2022-10-16T11:00:56;21.65;;;11.70;;
61572;SDS011;47465;43.094;12.434;2022-10-16T11:03:30;21.83;;;12.13;;
61572;SDS011;47465;43.094;12.434;2022-10-16T11:06:04;19.65;;;10.68;;
61572;SDS011;47465;43.094;12.434;2022-10-16T11:08:36;22.77;;;11.02;;
61572;SDS011;47465;43.094;12.434;2022-10-16T11:11:08;20.00;;;11.35;;
61572;SDS011;47465;43.094;12.434;2022-10-16T11:13:39;22.25;;;11.25;;
61572;SDS011;47465;43.094;12.434;2022-10-16T11:16:15;20.13;;;11.23;;
61572;SDS011;47465;43.094;12.434;2022-10-16T11:18:47;20.52;;;9.73;;
61572;SDS011;47465;43.094;12.434;2022-10-16T11:21:18;20.58;;;10.15;;
61572;SDS011;47465;43.094;12.434;2022-10-16T11:23:48;21.47;;;10.40;;
61572;SDS011;47465;43.094;12.434;2022-10-16T11:26:20;20.77;;;9.48;;
61572;SDS011;47465;43.094;12.434;2022-10-16T11:28:49;19.85;;;10.07;;
61572;SDS011;47465;43.094;12.434;2022-10-16T11:31:17;17.98;;;9.00;;
61572;SDS011;47465;43.094;12.434;2022-10-16T11:33:51;18.70;;;8.90;;
61572;SDS011;47465;43.094;12.434;2022-10-16T11:36:25;17.52;;;9.23;;
61572;SDS011;47465;43.094;12.434;2022-10-16T11:39:00;20.25;;;9.05;;
61572;SDS011;47465;43.094;12.434;2022-10-16T11:41:32;17.20;;;10.15;;
61572;SDS011;47465;43.094;12.434;2022-10-16T11:44:12;17.05;;;9.07;;
61572;SDS011;47465;43.094;12.434;2022-10-16T11:46:46;21.52;;;9.48;;
61572;SDS011;47465;43.094;12.434;2022-10-16T11:49:18;16.40;;;8.80;;
61572;SDS011;47465;43.094;12.434;2022-10-16T11:51:48;13.27;;;9.05;;
61572;SDS011;47465;43.094;12.434;2022-10-16T11:54:28;15.15;;;8.25;;
61572;SDS011;47465;43.094;12.434;2022-10-16T11:56:59;15.05;;;8.20;;
61572;SDS011;47465;43.094;12.434;2022-10-16T11:59:33;12.25;;;7.43;;
61572;SDS011;47465;43.094;12.434;2022-10-16T12:02:13;12.57;;;6.63;;
61572;SDS011;47465;43.094;12.434;2022-10-16T12:04:59;11.82;;;6.80;;
61572;SDS011;47465;43.094;12.434;2022-10-16T12:07:41;11.95;;;6.80;;
61572;SDS011;47465;43.094;12.434;2022-10-16T12:10:20;11.70;;;7.00;;
61572;SDS011;47465;43.094;12.434;2022-10-16T12:12:48;14.80;;;7.40;;
61572;SDS011;47465;43.094;12.434;2022-10-16T12:15:19;14.63;;;7.30;;
61572;SDS011;47465;43.094;12.434;2022-10-16T12:17:47;14.98;;;7.32;;
61572;SDS011;47465;43.094;12.434;2022-10-16T12:20:27;17.15;;;7.45;;
61572;SDS011;47465;43.094;12.434;2022-10-16T12:22:56;13.75;;;7.60;;
61572;SDS011;47465;43.094;12.434;2022-10-16T12:25:26;13.15;;;7.68;;
61572;SDS011;47465;43.094;12.434;2022-10-16T12:27:54;13.10;;;7.32;;
61572;SDS011;47465;43.094;12.434;2022-10-16T12:30:23;13.20;;;7.32;;
61572;SDS011;47465;43.094;12.434;2022-10-16T12:32:53;11.05;;;6.70;;
61572;SDS011;47465;43.094;12.434;2022-10-16T12:35:20;11.20;;;6.10;;
61572;SDS011;47465;43.094;12.434;2022-10-16T12:37:48;11.02;;;6.20;;
61572;SDS011;47465;43.094;12.434;2022-10-16T12:40:16;9.75;;;5.95;;
61572;SDS011;47465;43.094;12.434;2022-10-16T12:42:52;12.15;;;6.22;;
61572;SDS011;47465;43.094;12.434;2022-10-16T12:45:25;7.97;;;5.57;;
61572;SDS011;47465;43.094;12.434;2022-10-16T12:47:54;10.00;;;5.95;;
61572;SDS011;47465;43.094;12.434;2022-10-16T12:50:31;9.73;;;5.47;;
61572;SDS011;47465;43.094;12.434;2022-10-16T12:52:59;13.27;;;5.75;;
61572;SDS011;47465;43.094;12.434;2022-10-16T12:55:32;13.15;;;5.07;;
61572;SDS011;47465;43.094;12.434;2022-10-16T12:58:23;8.10;;;4.68;;
61572;SDS011;47465;43.094;12.434;2022-10-16T13:01:04;10.07;;;5.20;;
61572;SDS011;47465;43.094;12.434;2022-10-16T13:03:50;11.32;;;5.65;;
61572;SDS011;47465;43.094;12.434;2022-10-16T13:06:30;10.82;;;5.57;;
61572;SDS011;47465;43.094;12.434;2022-10-16T13:09:16;9.98;;;6.30;;
61572;SDS011;47465;43.094;12.434;2022-10-16T13:11:55;9.95;;;5.30;;
61572;SDS011;47465;43.094;12.434;2022-10-16T13:14:37;10.52;;;5.80;;
61572;SDS011;47465;43.094;12.434;2022-10-16T13:17:22;14.18;;;5.63;;
61572;SDS011;47465;43.094;12.434;2022-10-16T13:19:56;10.38;;;5.75;;
61572;SDS011;47465;43.094;12.434;2022-10-16T13:22:29;11.20;;;6.03;;
61572;SDS011;47465;43.094;12.434;2022-10-16T13:25:03;11.73;;;6.57;;
61572;SDS011;47465;43.094;12.434;2022-10-16T13:27:43;10.48;;;6.65;;
61572;SDS011;47465;43.094;12.434;2022-10-16T13:30:17;11.05;;;6.82;;
61572;SDS011;47465;43.094;12.434;2022-10-16T13:32:46;12.48;;;7.43;;
61572;SDS011;47465;43.094;12.434;2022-10-16T13:35:21;11.77;;;7.00;;
61572;SDS011;47465;43.094;12.434;2022-10-16T13:37:48;14.20;;;7.10;;
61572;SDS011;47465;43.094;12.434;2022-10-16T13:40:18;13.35;;;8.00;;
61572;SDS011;47465;43.094;12.434;2022-10-16T13:42:46;12.27;;;6.93;;
61572;SDS011;47465;43.094;12.434;2022-10-16T13:45:22;11.10;;;7.05;;
61572;SDS011;47465;43.094;12.434;2022-10-16T13:47:50;10.38;;;7.00;;
61572;SDS011;47465;43.094;12.434;2022-10-16T13:50:27;11.07;;;6.95;;
61572;SDS011;47465;43.094;12.434;2022-10-16T13:53:02;11.77;;;6.80;;
61572;SDS011;47465;43.094;12.434;2022-10-16T13:55:29;13.07;;;6.88;;
61572;SDS011;47465;43.094;12.434;2022-10-16T13:58:04;13.75;;;6.93;;
61572;SDS011;47465;43.094;12.434;2022-10-16T14:00:31;12.55;;;6.10;;
61572;SDS011;47465;43.094;12.434;2022-10-16T14:02:58;10.57;;;6.15;;
61572;SDS011;47465;43.094;12.434;2022-10-16T14:05:29;14.10;;;6.97;;
61572;SDS011;47465;43.094;12.434;2022-10-16T14:07:55;11.77;;;6.35;;
61572;SDS011;47465;43.094;12.434;2022-10-16T14:10:23;12.57;;;6.88;;
61572;SDS011;47465;43.094;12.434;2022-10-16T14:12:56;12.48;;;6.32;;
61572;SDS011;47465;43.094;12.434;2022-10-16T14:15:23;12.68;;;6.65;;
61572;SDS011;47465;43.094;12.434;2022-10-16T14:17:51;12.00;;;6.80;;
61572;SDS011;47465;43.094;12.434;2022-10-16T14:20:18;11.48;;;6.43;;
61572;SDS011;47465;43.094;12.434;2022-10-16T14:22:46;12.05;;;6.63;;
61572;SDS011;47465;43.094;12.434;2022-10-16T14:25:24;14.00;;;7.07;;
61572;SDS011;47465;43.094;12.434;2022-10-16T14:27:59;10.80;;;6.53;;
61572;SDS011;47465;43.094;12.434;2022-10-16T14:30:27;14.07;;;6.78;;
61572;SDS011;47465;43.094;12.434;2022-10-16T14:32:56;12.10;;;6.55;;
61572;SDS011;47465;43.094;12.434;2022-10-16T14:35:24;11.98;;;6.75;;
61572;SDS011;47465;43.094;12.434;2022-10-16T14:37:52;12.75;;;6.65;;